Time;durP1;ratioP1;P1;durP2;ratioP2;P2;SDS_P1;SDS_P2;PMS_P1;PMS_P2;Temp;Humidity;BMP_temperature;BMP_pressure;BME280_temperature;BME280_humidity;BME280_pressure;Samples;Min_cycle;Max_cycle;Signal;HPM_P1;HPM_P2
2022/06/10 00:01:04;;;;;;;;;;;18.70;62.70;;;;;;5063260;28;19909;-51
2022/06/10 00:03:32;;;;;;;;;;;18.90;60.10;;;;;;5054579;28;19913;-41
2022/06/10 00:06:00;;;;;;;;;;;18.80;61.50;;;;;;5071910;28;19995;-51
2022/06/10 00:08:31;;;;;;;;;;;18.80;61.70;;;;;;5083881;28;20102;-40
2022/06/10 00:10:59;;;;;;;;;;;18.70;61.00;;;;;;5089820;28;20008;-50
2022/06/10 00:13:28;;;;;;;;;;;18.60;61.50;;;;;;5086540;28;20283;-47
2022/06/10 00:15:59;;;;;;;;;;;18.70;62.30;;;;;;5075015;28;19921;-54
2022/06/10 00:18:27;;;;;;;;;;;18.80;61.80;;;;;;5080509;28;20009;-46
2022/06/10 00:20:54;;;;;;;;;;;19.00;61.40;;;;;;5094656;28;19923;-50
2022/06/10 00:23:24;;;;;;;;;;;19.00;61.20;;;;;;5093429;28;19924;-40
2022/06/10 00:25:50;;;;;;;;;;;19.00;61.50;;;;;;5089612;28;19931;-47
2022/06/10 00:28:17;;;;;;;;;;;19.20;62.10;;;;;;5092789;28;19912;-44
2022/06/10 00:30:44;;;;;;;;;;;19.20;62.30;;;;;;5092732;28;20382;-40
2022/06/10 00:33:12;;;;;;;;;;;19.80;60.70;;;;;;5094150;28;20019;-51
2022/06/10 00:35:40;;;;;;;;;;;20.00;58.70;;;;;;5095746;28;20279;-48
2022/06/10 00:38:07;;;;;;;;;;;20.20;58.90;;;;;;5095460;28;19908;-57
2022/06/10 00:40:36;;;;;;;;;;;20.40;57.20;;;;;;5095259;28;20359;-53
2022/06/10 00:43:02;;;;;;;;;;;20.40;57.20;;;;;;5095075;28;19936;-50
2022/06/10 00:45:47;;;;;;;;;;;20.50;59.50;;;;;;5095031;28;19961;-54
2022/06/10 00:48:18;;;;;;;;;;;20.60;58.50;;;;;;5095478;28;19984;-54
2022/06/10 00:50:45;;;;;;;;;;;20.70;59.20;;;;;;5094741;28;20327;-54
2022/06/10 00:53:14;;;;;;;;;;;20.90;57.70;;;;;;5095351;28;19951;-55
2022/06/10 00:55:42;;;;;;;;;;;20.70;58.80;;;;;;5095187;28;19912;-54
2022/06/10 00:58:16;;;;;;;;;;;20.70;57.90;;;;;;5095041;28;19909;-54
2022/06/10 01:00:43;;;;;;;;;;;20.80;58.20;;;;;;5093648;28;19978;-52
2022/06/10 01:03:10;;;;;;;;;;;20.80;59.20;;;;;;5076469;28;19924;-53
2022/06/10 01:05:37;;;;;;;;;;;20.90;59.50;;;;;;5094907;28;19908;-58
2022/06/10 01:08:07;;;;;;;;;;;21.00;59.00;;;;;;5094998;28;19965;-57
2022/06/10 01:10:42;;;;;;;;;;;21.00;57.60;;;;;;5094375;28;19908;-54
2022/06/10 01:13:15;;;;;;;;;;;21.00;59.00;;;;;;5094121;28;19954;-40
2022/06/10 01:15:48;;;;;;;;;;;21.00;59.20;;;;;;5093471;28;19908;-60
2022/06/10 01:18:17;;;;;;;;;;;20.90;57.20;;;;;;5092097;28;19908;-54
2022/06/10 01:20:48;;;;;;;;;;;21.00;58.60;;;;;;5091981;28;20300;-57
2022/06/10 01:23:21;;;;;;;;;;;20.80;58.20;;;;;;5090659;28;20399;-60
2022/06/10 01:25:56;;;;;;;;;;;21.00;58.90;;;;;;5091693;28;20238;-53
2022/06/10 01:28:29;;;;;;;;;;;20.90;57.80;;;;;;5092010;28;19908;-50
2022/06/10 01:31:08;;;;;;;;;;;21.00;59.00;;;;;;5092925;28;20355;-51
2022/06/10 01:33:47;;;;;;;;;;;21.10;56.30;;;;;;5094385;28;19931;-58
2022/06/10 01:36:32;;;;;;;;;;;21.20;58.70;;;;;;5094231;28;20266;-45
2022/06/10 01:38:59;;;;;;;;;;;21.10;57.60;;;;;;5094358;28;19908;-50
2022/06/10 01:41:38;;;;;;;;;;;21.10;57.00;;;;;;5094146;28;19923;-50
2022/06/10 01:44:09;;;;;;;;;;;20.90;57.20;;;;;;5093236;28;20011;-42
2022/06/10 01:46:37;;;;;;;;;;;21.00;58.30;;;;;;5092615;28;19953;-42
2022/06/10 01:49:13;;;;;;;;;;;21.10;56.60;;;;;;5093636;28;19928;-42
2022/06/10 01:51:40;;;;;;;;;;;21.40;57.50;;;;;;5093446;28;19915;-50
2022/06/10 01:54:31;;;;;;;;;;;21.40;58.30;;;;;;5094090;28;19947;-45
2022/06/10 01:56:59;;;;;;;;;;;21.50;57.90;;;;;;5066122;28;19991;-52
2022/06/10 01:59:25;;;;;;;;;;;21.60;56.70;;;;;;5093715;28;19916;-55
2022/06/10 02:02:15;;;;;;;;;;;21.80;55.60;;;;;;5074954;28;20007;-47
2022/06/10 02:04:47;;;;;;;;;;;21.90;55.60;;;;;;5093254;28;19919;-54
2022/06/10 02:07:20;;;;;;;;;;;21.80;55.70;;;;;;5093698;28;19918;-49
2022/06/10 02:09:51;;;;;;;;;;;21.70;56.70;;;;;;5093724;28;20239;-56
2022/06/10 02:12:24;;;;;;;;;;;21.90;55.20;;;;;;5093502;28;20004;-55
2022/06/10 02:14:56;;;;;;;;;;;21.90;56.00;;;;;;5093072;28;19908;-53
2022/06/10 02:17:25;;;;;;;;;;;21.90;56.20;;;;;;5093201;28;19912;-60
2022/06/10 02:19:55;;;;;;;;;;;21.80;55.90;;;;;;5093467;28;19908;-59
2022/06/10 02:22:35;;;;;;;;;;;21.90;54.60;;;;;;5093064;28;20410;-52
2022/06/10 02:25:08;;;;;;;;;;;21.90;54.80;;;;;;5093068;28;20003;-59
2022/06/10 02:27:39;;;;;;;;;;;22.10;54.50;;;;;;5091592;28;19912;-55
2022/06/10 02:30:15;;;;;;;;;;;22.00;55.60;;;;;;5092725;28;19972;-56
2022/06/10 02:32:43;;;;;;;;;;;22.20;55.40;;;;;;5093059;28;19977;-57
2022/06/10 02:35:11;;;;;;;;;;;22.20;54.30;;;;;;5093006;28;20263;-55
2022/06/10 02:37:40;;;;;;;;;;;22.20;54.70;;;;;;5093090;28;19999;-59
2022/06/10 02:40:19;;;;;;;;;;;22.20;56.00;;;;;;5092885;28;19931;-56
2022/06/10 02:42:55;;;;;;;;;;;22.30;55.80;;;;;;5092854;28;19920;-59
2022/06/10 02:45:33;;;;;;;;;;;22.20;55.90;;;;;;5093290;28;20089;-59
2022/06/10 02:48:00;;;;;;;;;;;22.30;54.10;;;;;;5092952;28;19909;-55
2022/06/10 02:50:27;;;;;;;;;;;22.30;54.60;;;;;;5093155;28;19965;-58
2022/06/10 02:52:54;;;;;;;;;;;22.20;55.20;;;;;;5092786;28;19920;-57
2022/06/10 02:55:23;;;;;;;;;;;22.30;53.90;;;;;;5093056;28;20274;-61
2022/06/10 03:03:43;;;;;;;;;;;22.50;54.00;;;;;;5093144;28;19923;-61
2022/06/10 03:06:13;;;;;;;;;;;22.50;54.70;;;;;;5092222;28;20263;-54
2022/06/10 03:08:53;;;;;;;;;;;22.50;54.60;;;;;;5092462;28;19920;-59
2022/06/10 03:11:35;;;;;;;;;;;22.60;55.10;;;;;;5092744;28;20011;-57
2022/06/10 03:14:09;;;;;;;;;;;22.60;53.30;;;;;;5092853;28;19909;-60
2022/06/10 03:16:41;;;;;;;;;;;22.60;54.20;;;;;;5092670;28;19912;-51
2022/06/10 03:19:18;;;;;;;;;;;22.80;53.30;;;;;;5092921;28;19940;-60
2022/06/10 03:22:07;;;;;;;;;;;22.60;55.10;;;;;;5092990;28;20247;-59
2022/06/10 03:24:46;;;;;;;;;;;22.70;55.20;;;;;;5092756;28;20000;-61
2022/06/10 03:27:22;;;;;;;;;;;22.50;54.30;;;;;;5093053;28;19965;-61
2022/06/10 03:29:50;;;;;;;;;;;22.60;54.40;;;;;;5093067;28;20347;-61
2022/06/10 03:32:19;;;;;;;;;;;22.50;55.60;;;;;;5087696;28;20232;-60
2022/06/10 03:34:54;;;;;;;;;;;22.60;53.40;;;;;;5071875;28;19948;-55
2022/06/10 03:37:22;;;;;;;;;;;22.50;53.90;;;;;;5072004;28;19915;-51
2022/06/10 03:39:50;;;;;;;;;;;22.50;55.30;;;;;;5072154;28;19908;-61
2022/06/10 03:42:17;;;;;;;;;;;22.50;54.80;;;;;;5072651;28;20359;-60
2022/06/10 03:44:47;;;;;;;;;;;22.50;55.40;;;;;;5071868;28;20275;-58
2022/06/10 03:47:19;;;;;;;;;;;22.40;55.50;;;;;;5073058;28;19909;-60
2022/06/10 03:50:14;;;;;;;;;;;22.40;54.90;;;;;;5076089;28;19912;-61
2022/06/10 03:52:44;;;;;;;;;;;22.30;54.60;;;;;;5058579;28;19921;-52
2022/06/10 03:55:15;;;;;;;;;;;22.40;54.10;;;;;;5075950;28;20298;-60
2022/06/10 03:57:41;;;;;;;;;;;22.40;55.20;;;;;;5075791;28;20283;-51
2022/06/10 04:00:08;;;;;;;;;;;22.40;53.50;;;;;;5076193;28;20337;-52
2022/06/10 04:02:35;;;;;;;;;;;22.20;54.90;;;;;;5075026;28;20107;-44
2022/06/10 04:05:02;;;;;;;;;;;22.10;56.30;;;;;;5074849;28;20355;-42
2022/06/10 04:07:29;;;;;;;;;;;22.10;53.90;;;;;;5079404;28;19913;-48
2022/06/10 04:09:55;;;;;;;;;;;22.10;55.10;;;;;;5077637;28;20347;-49
2022/06/10 04:12:23;;;;;;;;;;;22.10;55.60;;;;;;5095700;28;19954;-52
2022/06/10 04:14:53;;;;;;;;;;;22.10;56.70;;;;;;5095338;28;21572;-61
2022/06/10 04:17:20;;;;;;;;;;;22.00;55.70;;;;;;5095891;28;20343;-52
2022/06/10 04:19:47;;;;;;;;;;;22.10;54.80;;;;;;5060612;28;19908;-60
2022/06/10 04:22:13;;;;;;;;;;;22.10;54.90;;;;;;5095156;28;20011;-54
2022/06/10 04:24:40;;;;;;;;;;;22.10;55.00;;;;;;5095077;28;19908;-57
2022/06/10 04:27:07;;;;;;;;;;;22.30;54.60;;;;;;5095598;28;19961;-61
2022/06/10 04:29:33;;;;;;;;;;;22.50;56.00;;;;;;5095469;28;19915;-62
2022/06/10 04:32:00;;;;;;;;;;;22.50;56.00;;;;;;5094846;28;19931;-52
2022/06/10 04:34:27;;;;;;;;;;;22.40;56.00;;;;;;5095215;28;20228;-55
2022/06/10 04:36:54;;;;;;;;;;;22.40;54.80;;;;;;5094655;28;19915;-61
2022/06/10 04:39:20;;;;;;;;;;;22.60;54.40;;;;;;5095035;28;19908;-53
2022/06/10 04:41:47;;;;;;;;;;;22.50;55.20;;;;;;5095154;28;19986;-64
2022/06/10 04:44:14;;;;;;;;;;;22.40;55.20;;;;;;5094603;28;19912;-55
2022/06/10 04:46:42;;;;;;;;;;;22.40;53.60;;;;;;5094797;28;19908;-64
2022/06/10 04:49:09;;;;;;;;;;;22.40;54.90;;;;;;5095259;28;20409;-55
2022/06/10 04:51:36;;;;;;;;;;;22.40;55.10;;;;;;5095325;28;20397;-53
2022/06/10 04:54:04;;;;;;;;;;;22.40;55.90;;;;;;5094827;28;19973;-50
2022/06/10 04:56:31;;;;;;;;;;;22.50;56.20;;;;;;5095108;28;19912;-51
2022/06/10 04:58:57;;;;;;;;;;;22.50;54.50;;;;;;5094608;28;20370;-56
2022/06/10 05:01:24;;;;;;;;;;;22.50;55.00;;;;;;5095052;28;19948;-52
2022/06/10 05:03:51;;;;;;;;;;;22.50;54.70;;;;;;5095001;28;19920;-54
2022/06/10 05:06:17;;;;;;;;;;;22.60;56.20;;;;;;5094778;28;20361;-58
2022/06/10 05:08:44;;;;;;;;;;;22.50;55.80;;;;;;5086767;28;19989;-56
2022/06/10 05:11:11;;;;;;;;;;;22.40;53.80;;;;;;5094726;28;19977;-56
2022/06/10 05:13:41;;;;;;;;;;;22.30;55.70;;;;;;5094260;28;19955;-61
2022/06/10 05:16:08;;;;;;;;;;;22.10;53.80;;;;;;5094647;28;20010;-54
2022/06/10 05:18:35;;;;;;;;;;;21.90;55.40;;;;;;5094618;28;19915;-54
2022/06/10 05:21:01;;;;;;;;;;;21.60;55.50;;;;;;5094328;28;19915;-47
2022/06/10 05:23:28;;;;;;;;;;;21.40;56.30;;;;;;5094231;28;19969;-56
2022/06/10 05:25:55;;;;;;;;;;;21.10;56.00;;;;;;5094143;28;20039;-46
2022/06/10 05:28:23;;;;;;;;;;;20.90;55.70;;;;;;5094107;28;20393;-54
2022/06/10 05:30:50;;;;;;;;;;;20.90;58.30;;;;;;5093019;28;19909;-47
2022/06/10 05:33:17;;;;;;;;;;;20.70;56.50;;;;;;5094321;28;19952;-59
2022/06/10 05:35:44;;;;;;;;;;;20.60;57.70;;;;;;5094263;28;19908;-54
2022/06/10 05:38:11;;;;;;;;;;;20.60;57.50;;;;;;5093910;28;19908;-44
2022/06/10 05:40:39;;;;;;;;;;;20.40;58.60;;;;;;5093952;28;19908;-54
2022/06/10 05:43:05;;;;;;;;;;;20.40;59.70;;;;;;5093439;28;20023;-48
2022/06/10 05:45:32;;;;;;;;;;;20.10;58.70;;;;;;5094061;28;19908;-43
2022/06/10 05:48:00;;;;;;;;;;;19.90;58.80;;;;;;5093749;28;19919;-49
2022/06/10 05:50:27;;;;;;;;;;;19.70;60.50;;;;;;5093018;28;20343;-46
2022/06/10 05:52:54;;;;;;;;;;;19.60;59.70;;;;;;5093829;28;19959;-51
2022/06/10 05:55:21;;;;;;;;;;;19.40;58.80;;;;;;5093788;28;19912;-56
2022/06/10 05:57:50;;;;;;;;;;;19.20;60.90;;;;;;5091927;28;20002;-54
2022/06/10 06:00:19;;;;;;;;;;;18.90;62.50;;;;;;5093693;28;19919;-49
2022/06/10 06:02:46;;;;;;;;;;;18.90;62.20;;;;;;5093510;28;19967;-58
2022/06/10 06:05:13;;;;;;;;;;;18.70;60.50;;;;;;5094061;28;19908;-52
2022/06/10 06:07:41;;;;;;;;;;;18.60;64.80;;;;;;5092419;28;19912;-48
2022/06/10 06:10:08;;;;;;;;;;;18.50;63.30;;;;;;5093090;28;20290;-48
2022/06/10 06:12:35;;;;;;;;;;;18.40;63.30;;;;;;5092717;28;19908;-53
2022/06/10 06:15:02;;;;;;;;;;;18.30;63.30;;;;;;5093301;28;20395;-59
2022/06/10 06:17:29;;;;;;;;;;;18.10;65.00;;;;;;5093577;28;19943;-61
2022/06/10 06:19:55;;;;;;;;;;;18.00;63.00;;;;;;5093466;28;19963;-58
2022/06/10 06:22:24;;;;;;;;;;;17.90;65.50;;;;;;5093596;28;19955;-52
2022/06/10 06:24:50;;;;;;;;;;;17.90;65.80;;;;;;5093456;28;20227;-51
2022/06/10 06:27:17;;;;;;;;;;;17.80;66.40;;;;;;5092628;28;20369;-50
2022/06/10 06:29:45;;;;;;;;;;;17.70;66.10;;;;;;5092953;28;19991;-60
2022/06/10 06:32:12;;;;;;;;;;;17.60;66.90;;;;;;5092932;28;19908;-48
2022/06/10 06:34:39;;;;;;;;;;;17.50;66.70;;;;;;5092801;28;20474;-45
2022/06/10 06:37:09;;;;;;;;;;;17.50;66.20;;;;;;5093138;28;19912;-58
2022/06/10 06:39:36;;;;;;;;;;;17.40;67.40;;;;;;5092392;28;19918;-58
2022/06/10 06:42:03;;;;;;;;;;;17.40;67.40;;;;;;5092559;28;19917;-54
2022/06/10 06:44:30;;;;;;;;;;;17.30;67.30;;;;;;5092578;28;19908;-47
2022/06/10 06:46:57;;;;;;;;;;;17.20;67.60;;;;;;5092576;28;19908;-56
2022/06/10 06:49:25;;;;;;;;;;;17.20;68.50;;;;;;5092777;28;20060;-57
2022/06/10 06:51:53;;;;;;;;;;;17.10;67.40;;;;;;5092159;28;19908;-64
2022/06/10 06:54:19;;;;;;;;;;;17.10;68.80;;;;;;5092473;28;19909;-52
2022/06/10 06:56:47;;;;;;;;;;;17.00;69.30;;;;;;5092110;28;19977;-57
2022/06/10 06:59:14;;;;;;;;;;;17.00;69.20;;;;;;5092774;28;20350;-55
2022/06/10 07:01:41;;;;;;;;;;;16.90;68.70;;;;;;5093040;28;20007;-55
2022/06/10 07:04:07;;;;;;;;;;;16.90;68.80;;;;;;5092835;28;19945;-55
2022/06/10 07:06:35;;;;;;;;;;;16.90;68.80;;;;;;5092419;28;19999;-53
2022/06/10 07:09:02;;;;;;;;;;;16.80;70.00;;;;;;5091942;28;19923;-52
2022/06/10 07:11:31;;;;;;;;;;;16.80;69.40;;;;;;5092435;28;19908;-55
2022/06/10 07:13:58;;;;;;;;;;;16.70;69.20;;;;;;5091562;28;19916;-60
2022/06/10 07:16:24;;;;;;;;;;;16.70;69.20;;;;;;5092646;28;19915;-52
2022/06/10 07:18:52;;;;;;;;;;;16.70;69.50;;;;;;5092767;28;19908;-61
2022/06/10 07:21:19;;;;;;;;;;;16.70;67.50;;;;;;5093338;28;19934;-51
2022/06/10 07:23:45;;;;;;;;;;;16.70;69.80;;;;;;5096378;28;19970;-55
2022/06/10 07:26:12;;;;;;;;;;;16.70;69.50;;;;;;5078367;28;20290;-61
2022/06/10 07:28:39;;;;;;;;;;;16.60;69.10;;;;;;5095721;28;19955;-52
2022/06/10 07:31:05;;;;;;;;;;;16.60;69.70;;;;;;5096892;28;19912;-51
2022/06/10 07:33:35;;;;;;;;;;;16.50;70.70;;;;;;5096344;28;19916;-56
2022/06/10 07:36:04;;;;;;;;;;;16.50;71.10;;;;;;5095997;28;19908;-56
2022/06/10 07:38:31;;;;;;;;;;;16.50;70.60;;;;;;5096002;28;19940;-51
2022/06/10 07:43:43;;;;;;;;;;;16.50;70.10;;;;;;5096928;28;19922;-59
2022/06/10 07:46:12;;;;;;;;;;;16.40;70.50;;;;;;5096234;28;19908;-54
2022/06/10 07:48:39;;;;;;;;;;;16.40;70.30;;;;;;5095636;28;20386;-56
2022/06/10 07:51:06;;;;;;;;;;;16.40;70.60;;;;;;5096208;28;19912;-62
2022/06/10 07:53:33;;;;;;;;;;;16.30;70.90;;;;;;5095461;28;19908;-61
2022/06/10 07:56:00;;;;;;;;;;;16.40;69.80;;;;;;5096232;28;19960;-55
2022/06/10 07:58:29;;;;;;;;;;;16.30;71.10;;;;;;5095757;28;19915;-58
2022/06/10 08:00:57;;;;;;;;;;;16.30;70.30;;;;;;5096014;28;20271;-60
2022/06/10 08:03:24;;;;;;;;;;;16.30;70.50;;;;;;5095305;28;19926;-58
2022/06/10 08:05:51;;;;;;;;;;;16.30;70.70;;;;;;5096191;28;19912;-61
2022/06/10 08:08:19;;;;;;;;;;;16.20;71.20;;;;;;5095386;28;19920;-62
2022/06/10 08:10:46;;;;;;;;;;;16.20;71.30;;;;;;5095582;28;19956;-58
2022/06/10 08:13:12;;;;;;;;;;;16.20;71.60;;;;;;5095540;28;19957;-56
2022/06/10 08:15:40;;;;;;;;;;;16.10;71.90;;;;;;5077136;28;20222;-56
2022/06/10 08:18:07;;;;;;;;;;;16.10;71.80;;;;;;5095703;28;20308;-64
2022/06/10 08:23:23;;;;;;;;;;;16.10;72.10;;;;;;5095939;28;19923;-56
2022/06/10 08:25:50;;;;;;;;;;;16.00;71.60;;;;;;5095173;28;19954;-59
2022/06/10 08:28:17;;;;;;;;;;;16.00;71.70;;;;;;5095167;28;20331;-59
2022/06/10 08:30:44;;;;;;;;;;;16.00;71.90;;;;;;5095377;28;20160;-58
2022/06/10 08:33:11;;;;;;;;;;;16.00;72.00;;;;;;5094983;28;19908;-51
2022/06/10 08:35:38;;;;;;;;;;;16.00;71.70;;;;;;5095659;28;20062;-50
2022/06/10 08:38:06;;;;;;;;;;;16.00;71.80;;;;;;5095376;28;19915;-46
2022/06/10 08:40:49;;;;;;;;;;;15.90;71.70;;;;;;5094832;28;19915;-42
2022/06/10 08:43:25;;;;;;;;;;;15.90;72.00;;;;;;5094991;28;19927;-42
2022/06/10 08:46:06;;;;;;;;;;;15.90;71.70;;;;;;5094773;28;19949;-46
2022/06/10 08:48:46;;;;;;;;;;;15.90;71.90;;;;;;5095074;28;19915;-43
2022/06/10 08:51:13;;;;;;;;;;;15.90;71.90;;;;;;5094537;28;19946;-45
2022/06/10 08:53:58;;;;;;;;;;;15.80;72.50;;;;;;5095417;28;19912;-47
2022/06/10 08:56:30;;;;;;;;;;;15.80;72.40;;;;;;5095307;28;19985;-43
2022/06/10 08:59:13;;;;;;;;;;;15.80;72.50;;;;;;5094811;28;19908;-48
2022/06/10 09:01:52;;;;;;;;;;;15.80;72.50;;;;;;5095448;28;19916;-41
2022/06/10 09:04:22;;;;;;;;;;;15.80;72.20;;;;;;5077172;28;19915;-44
2022/06/10 09:06:51;;;;;;;;;;;15.80;72.40;;;;;;5095278;28;20002;-48
2022/06/10 09:09:19;;;;;;;;;;;15.80;72.80;;;;;;5094690;28;19927;-53
2022/06/10 09:11:52;;;;;;;;;;;15.70;72.80;;;;;;5059979;28;19973;-55
2022/06/10 09:14:21;;;;;;;;;;;15.70;72.80;;;;;;5094724;28;20003;-53
2022/06/10 09:16:50;;;;;;;;;;;15.70;73.10;;;;;;5094696;28;20278;-50
2022/06/10 09:19:23;;;;;;;;;;;15.70;73.30;;;;;;5095057;28;19974;-53
2022/06/10 09:21:53;;;;;;;;;;;15.70;73.00;;;;;;5094622;28;19919;-48
2022/06/10 09:24:38;;;;;;;;;;;15.60;72.80;;;;;;5094321;28;20358;-45
2022/06/10 09:27:07;;;;;;;;;;;15.60;73.00;;;;;;5094313;28;20340;-51
2022/06/10 09:29:37;;;;;;;;;;;15.60;73.40;;;;;;5094684;28;20363;-50
2022/06/10 09:32:04;;;;;;;;;;;15.60;73.40;;;;;;5094585;28;19961;-56
2022/06/10 09:34:34;;;;;;;;;;;15.60;72.90;;;;;;5094606;28;19908;-58
2022/06/10 09:37:10;;;;;;;;;;;15.60;73.30;;;;;;5094181;28;19919;-46
2022/06/10 09:42:30;;;;;;;;;;;15.60;73.30;;;;;;5094425;28;19919;-46
2022/06/10 09:45:07;;;;;;;;;;;15.60;73.40;;;;;;5093102;28;19908;-44
2022/06/10 09:47:34;;;;;;;;;;;15.50;73.30;;;;;;5094367;28;19916;-48
2022/06/10 09:50:04;;;;;;;;;;;15.50;73.10;;;;;;5094496;28;19943;-50
2022/06/10 09:52:31;;;;;;;;;;;15.50;73.10;;;;;;5094159;28;19915;-46
2022/06/10 09:54:58;;;;;;;;;;;15.50;73.10;;;;;;5093813;28;19974;-52
2022/06/10 09:57:28;;;;;;;;;;;15.50;73.20;;;;;;5088262;28;19908;-54
2022/06/10 10:00:11;;;;;;;;;;;15.50;72.90;;;;;;5073741;28;19919;-52
2022/06/10 10:02:38;;;;;;;;;;;15.50;73.30;;;;;;5073676;28;19982;-53
2022/06/10 10:05:23;;;;;;;;;;;15.50;73.50;;;;;;5073660;28;20406;-56
2022/06/10 10:07:50;;;;;;;;;;;15.40;73.40;;;;;;5079997;28;19922;-48
2022/06/10 10:10:22;;;;;;;;;;;15.40;73.70;;;;;;5092462;28;19916;-50
2022/06/10 10:13:09;;;;;;;;;;;15.40;73.20;;;;;;5093507;28;19961;-49
2022/06/10 10:15:38;;;;;;;;;;;15.40;73.40;;;;;;5093759;28;19912;-51
2022/06/10 10:18:11;;;;;;;;;;;15.40;73.40;;;;;;5093845;28;20016;-53
2022/06/10 10:21:09;;;;;;;;;;;15.40;73.40;;;;;;5093101;28;20007;-54
2022/06/10 10:24:02;;;;;;;;;;;15.40;73.60;;;;;;5081411;28;19920;-54
2022/06/10 10:26:32;;;;;;;;;;;15.30;73.40;;;;;;5092094;28;20374;-54
2022/06/10 10:29:05;;;;;;;;;;;15.30;73.70;;;;;;5093358;28;20354;-57
2022/06/10 10:31:36;;;;;;;;;;;15.30;73.50;;;;;;5093806;28;19915;-56
2022/06/10 10:34:04;;;;;;;;;;;15.30;73.60;;;;;;5093746;28;19935;-60
2022/06/10 10:36:35;;;;;;;;;;;15.30;73.30;;;;;;5093039;28;20040;-54
2022/06/10 10:39:25;;;;;;;;;;;15.30;73.90;;;;;;5093309;28;20370;-61
2022/06/10 10:41:52;;;;;;;;;;;15.30;73.90;;;;;;5089861;28;20197;-46
2022/06/10 10:44:38;;;;;;;;;;;15.30;73.90;;;;;;5093233;28;19908;-54
2022/06/10 10:47:10;;;;;;;;;;;15.30;74.20;;;;;;5093397;28;19908;-47
2022/06/10 10:49:42;;;;;;;;;;;15.20;73.90;;;;;;5093287;28;20367;-58
2022/06/10 10:52:15;;;;;;;;;;;15.20;74.00;;;;;;5093048;28;19908;-56
2022/06/10 10:54:43;;;;;;;;;;;15.20;74.10;;;;;;5093193;28;19951;-47
2022/06/10 10:57:21;;;;;;;;;;;15.20;74.10;;;;;;5092833;28;19908;-58
2022/06/10 10:59:54;;;;;;;;;;;15.20;74.00;;;;;;5093160;28;19914;-53
2022/06/10 11:02:26;;;;;;;;;;;15.20;74.00;;;;;;5093169;28;20372;-49
2022/06/10 11:05:07;;;;;;;;;;;15.20;74.00;;;;;;5093214;28;19943;-53
2022/06/10 11:07:33;;;;;;;;;;;15.20;74.40;;;;;;5093211;28;19999;-55
2022/06/10 11:10:08;;;;;;;;;;;15.20;74.20;;;;;;5092714;28;20027;-59
2022/06/10 11:12:35;;;;;;;;;;;15.20;74.60;;;;;;5092607;28;19908;-51
2022/06/10 11:15:06;;;;;;;;;;;15.10;74.60;;;;;;5093223;28;19914;-60
2022/06/10 11:17:35;;;;;;;;;;;15.10;74.20;;;;;;5092755;28;19915;-54
2022/06/10 11:20:16;;;;;;;;;;;15.10;74.40;;;;;;5093044;28;19919;-53
2022/06/10 11:22:44;;;;;;;;;;;15.10;74.30;;;;;;5091527;28;19938;-62
2022/06/10 11:25:17;;;;;;;;;;;15.10;74.50;;;;;;5092894;28;19950;-50
2022/06/10 11:27:49;;;;;;;;;;;15.10;74.40;;;;;;5093106;28;19983;-56
2022/06/10 11:30:21;;;;;;;;;;;15.10;74.60;;;;;;5093348;28;19919;-53
2022/06/10 11:32:51;;;;;;;;;;;15.00;74.60;;;;;;5092732;28;19956;-54
2022/06/10 11:35:21;;;;;;;;;;;15.00;74.40;;;;;;5093281;28;19912;-58
2022/06/10 11:37:49;;;;;;;;;;;15.00;74.70;;;;;;5092767;28;19983;-60
2022/06/10 11:40:22;;;;;;;;;;;15.00;74.70;;;;;;5092572;28;19912;-61
2022/06/10 11:42:55;;;;;;;;;;;15.00;74.70;;;;;;5092840;28;19985;-51
2022/06/10 11:45:23;;;;;;;;;;;14.90;74.70;;;;;;5092774;28;19912;-60
2022/06/10 11:47:56;;;;;;;;;;;15.00;75.00;;;;;;5092744;28;20353;-62
2022/06/10 11:50:27;;;;;;;;;;;15.00;74.90;;;;;;5092336;28;19927;-59
2022/06/10 11:52:59;;;;;;;;;;;14.90;74.80;;;;;;5092326;28;20335;-53
2022/06/10 11:55:28;;;;;;;;;;;14.90;75.00;;;;;;5092682;28;19912;-57
2022/06/10 12:00:42;;;;;;;;;;;14.90;75.00;;;;;;5092256;28;20369;-61
2022/06/10 12:03:15;;;;;;;;;;;14.90;75.10;;;;;;5092813;28;19916;-61
2022/06/10 12:05:56;;;;;;;;;;;14.80;75.10;;;;;;5092756;28;19948;-61
2022/06/10 12:08:31;;;;;;;;;;;14.80;75.10;;;;;;5093678;28;19924;-60
2022/06/10 12:11:06;;;;;;;;;;;14.80;75.20;;;;;;5096101;28;19916;-61
2022/06/10 12:13:37;;;;;;;;;;;14.80;75.10;;;;;;5096131;28;19908;-56
2022/06/10 12:16:04;;;;;;;;;;;14.80;75.30;;;;;;5096283;28;19908;-57
2022/06/10 12:18:33;;;;;;;;;;;14.80;75.30;;;;;;5096119;28;20358;-61
2022/06/10 12:21:02;;;;;;;;;;;14.80;75.10;;;;;;5095932;28;19915;-58
2022/06/10 12:23:30;;;;;;;;;;;14.80;75.20;;;;;;5095966;28;19916;-57
2022/06/10 12:26:02;;;;;;;;;;;14.80;75.90;;;;;;5096220;28;19908;-61
2022/06/10 12:28:33;;;;;;;;;;;14.70;75.20;;;;;;5096132;28;19934;-60
2022/06/10 12:31:19;;;;;;;;;;;14.70;75.20;;;;;;5096247;28;19917;-59
2022/06/10 12:33:49;;;;;;;;;;;14.70;75.00;;;;;;5095746;28;19918;-61
2022/06/10 12:36:19;;;;;;;;;;;14.70;75.30;;;;;;5095892;28;20014;-54
2022/06/10 12:38:47;;;;;;;;;;;14.70;75.40;;;;;;5095658;28;20329;-55
2022/06/10 12:41:21;;;;;;;;;;;14.70;75.40;;;;;;5095605;28;20278;-58
2022/06/10 12:43:53;;;;;;;;;;;14.70;75.40;;;;;;5096052;28;19916;-55
2022/06/10 12:46:22;;;;;;;;;;;14.70;75.30;;;;;;5095730;28;20266;-50
2022/06/10 12:48:49;;;;;;;;;;;14.70;75.50;;;;;;5095607;28;19908;-55
2022/06/10 12:51:29;;;;;;;;;;;14.60;75.40;;;;;;5095525;28;20294;-61
2022/06/10 12:53:58;;;;;;;;;;;14.60;75.40;;;;;;5095818;28;20331;-58
2022/06/10 12:56:32;;;;;;;;;;;14.60;75.50;;;;;;5094767;28;19908;-55
2022/06/10 12:59:06;;;;;;;;;;;14.60;75.50;;;;;;5095713;28;20314;-55
2022/06/10 13:01:33;;;;;;;;;;;14.60;75.50;;;;;;5095081;28;20104;-62
2022/06/10 13:04:04;;;;;;;;;;;14.60;75.50;;;;;;5095462;28;20389;-60
2022/06/10 13:06:34;;;;;;;;;;;14.60;75.50;;;;;;5095325;28;19915;-60
2022/06/10 13:09:12;;;;;;;;;;;14.60;75.60;;;;;;5095232;28;19920;-57
2022/06/10 13:11:39;;;;;;;;;;;14.50;75.60;;;;;;5095272;28;19931;-58
2022/06/10 13:14:19;;;;;;;;;;;14.50;75.50;;;;;;5095304;28;19912;-59
2022/06/10 13:16:48;;;;;;;;;;;14.50;75.70;;;;;;5095258;28;19931;-60
2022/06/10 13:19:41;;;;;;;;;;;14.50;75.60;;;;;;5095480;28;19915;-51
2022/06/10 13:22:26;;;;;;;;;;;14.50;75.70;;;;;;5086879;28;20279;-57
2022/06/10 13:24:55;;;;;;;;;;;14.50;75.50;;;;;;5095221;28;19959;-58
2022/06/10 13:27:24;;;;;;;;;;;14.50;75.60;;;;;;5094967;28;19908;-56
2022/06/10 13:29:53;;;;;;;;;;;14.50;75.70;;;;;;5094163;28;20271;-47
2022/06/10 13:32:20;;;;;;;;;;;14.50;75.60;;;;;;5095113;28;19915;-55
2022/06/10 13:34:59;;;;;;;;;;;14.50;75.80;;;;;;5094827;28;19912;-41
2022/06/10 13:37:29;;;;;;;;;;;14.40;75.70;;;;;;5095297;28;20002;-44
2022/06/10 13:39:59;;;;;;;;;;;14.40;75.60;;;;;;5094829;28;19908;-42
2022/06/10 13:42:34;;;;;;;;;;;14.40;75.80;;;;;;5094542;28;19916;-46
2022/06/10 13:45:04;;;;;;;;;;;14.40;75.50;;;;;;5093468;28;19954;-47
2022/06/10 13:47:34;;;;;;;;;;;14.40;75.80;;;;;;5094655;28;19908;-44
2022/06/10 13:52:46;;;;;;;;;;;14.40;75.90;;;;;;5094591;28;20007;-43
2022/06/10 13:55:19;;;;;;;;;;;14.40;76.10;;;;;;5093152;28;19914;-49
2022/06/10 13:57:53;;;;;;;;;;;14.40;75.70;;;;;;5094220;28;19912;-41
2022/06/10 14:00:21;;;;;;;;;;;14.40;75.80;;;;;;5094571;28;20004;-56
2022/06/10 14:02:48;;;;;;;;;;;14.40;75.80;;;;;;5093998;28;19923;-53
2022/06/10 14:05:18;;;;;;;;;;;14.40;75.90;;;;;;5094571;28;19962;-48
2022/06/10 14:07:45;;;;;;;;;;;14.40;75.80;;;;;;5093915;28;19991;-54
2022/06/10 14:10:17;;;;;;;;;;;14.40;75.70;;;;;;5094217;28;19908;-61
2022/06/10 14:13:19;;;;;;;;;;;14.40;75.80;;;;;;5094226;28;19912;-59
2022/06/10 14:15:54;;;;;;;;;;;14.30;75.80;;;;;;5071871;28;19959;-51
2022/06/10 14:18:23;;;;;;;;;;;14.40;75.80;;;;;;5090755;28;19909;-61
2022/06/10 14:20:53;;;;;;;;;;;14.40;75.70;;;;;;5094088;28;20362;-53
2022/06/10 14:23:30;;;;;;;;;;;14.40;75.70;;;;;;5094243;28;20336;-55
2022/06/10 14:26:06;;;;;;;;;;;14.30;75.70;;;;;;5094019;28;20267;-61
2022/06/10 14:28:33;;;;;;;;;;;14.30;75.80;;;;;;5093553;28;19914;-56
2022/06/10 14:31:00;;;;;;;;;;;14.30;75.80;;;;;;5092220;28;19908;-61
2022/06/10 14:33:30;;;;;;;;;;;14.30;75.60;;;;;;5094219;28;20266;-57
2022/06/10 14:36:25;;;;;;;;;;;14.30;75.80;;;;;;5094155;28;19912;-60
2022/06/10 14:39:04;;;;;;;;;;;14.30;75.80;;;;;;5088875;28;19913;-61
2022/06/10 14:41:32;;;;;;;;;;;14.30;75.80;;;;;;5093997;28;19947;-61
2022/06/10 14:44:19;;;;;;;;;;;14.30;75.90;;;;;;5093584;28;19942;-60
2022/06/10 14:47:05;;;;;;;;;;;14.30;75.80;;;;;;5093498;28;19912;-59
2022/06/10 14:49:39;;;;;;;;;;;14.30;75.80;;;;;;5093673;28;19930;-57
2022/06/10 14:52:19;;;;;;;;;;;14.30;75.80;;;;;;5093647;28;19912;-62
2022/06/10 14:54:45;;;;;;;;;;;14.30;75.80;;;;;;5093490;28;19914;-57
2022/06/10 14:57:23;;;;;;;;;;;14.30;75.70;;;;;;5093644;28;19910;-59